Medlin's Ranch, Nevada Weather observations

Data are for observation ending at time listed.
 Day   Time    Ave.   Ave.  Ave.  Vector   Max.   Stn.    Total    Solar   Ave.  
  of    of     Air    Rel.  Wind   Wind    Wind   Baro.  Precip.   Rad.    Soil  
Year   Day     Temp.  Hum.  Speed  Dir.    Gust   Pres.                    Temp. 
2015   (PST)    F      %     mph   deg.    mph     mb.     in.     W/m2     F   
------------------------------------------------------------------------------
 148    0:00  99999.0   99999  99999.0   99999    99999.0    99999    99999.00   99999    99999.0
 148    1:00  99999.0   99999  99999.0   99999    99999.0    99999    99999.00   99999    99999.0
 148    2:00  99999.0   99999  99999.0   99999    99999.0    99999    99999.00   99999    99999.0
 148    3:00  99999.0   99999  99999.0   99999    99999.0    99999    99999.00   99999    99999.0
 148    4:00  99999.0   99999  99999.0   99999    99999.0    99999    99999.00   99999    99999.0
 148    5:00  99999.0   99999  99999.0   99999    99999.0    99999    99999.00   99999    99999.0
 148    6:00  99999.0   99999  99999.0   99999    99999.0    99999    99999.00   99999    99999.0
 148    7:00  99999.0   99999  99999.0   99999    99999.0    99999    99999.00   99999    99999.0
 148    8:00  99999.0   99999  99999.0   99999    99999.0    99999    99999.00   99999    99999.0
 148    9:00  99999.0   99999  99999.0   99999    99999.0    99999    99999.00   99999    99999.0
 148   10:00  99999.0   99999  99999.0   99999    99999.0    99999    99999.00   99999    99999.0
 148   11:00  99999.0   99999  99999.0   99999    99999.0    99999    99999.00   99999    99999.0
 148   12:00  99999.0   99999  99999.0   99999    99999.0    99999    99999.00   99999    99999.0
 148   13:00  99999.0   99999  99999.0   99999    99999.0    99999    99999.00   99999    99999.0
 148   14:00  99999.0   99999  99999.0   99999    99999.0    99999    99999.00   99999    99999.0
 148   15:00   84.7    13    9.0   229     22.0    863     0.00     608    86.7
 148   16:00   84.6    12    9.0   205     22.3    862     0.00     482    86.8
 148   17:00   84.8    12    8.2   218     20.5    862     0.00     417    86.6
 148   18:00   82.9    12    8.1   215     19.3    862     0.00     122    86.2
 148   19:00   81.2    12    6.5   214     14.7    862     0.00      21    85.1
 148   20:00   78.3    14    6.1   200     12.0    862     0.00       0    83.7
 148   21:00   75.3    16    3.4   189      7.3    863     0.00       0    82.3
 148   22:00   74.6    16    4.0    94     13.8    863     0.00       0    80.9
 148   23:00   71.5    18    2.9   226      6.4    864     0.00       0    79.6

Return to Medlin's Ranch, Nevada graphs page.


Western Regional Climate Center,wrcc@dri.edu